Time;durP1;ratioP1;P1;durP2;ratioP2;P2;SDS_P1;SDS_P2;PMS_P1;PMS_P2;Temp;Humidity;BMP_temperature;BMP_pressure;BME280_temperature;BME280_humidity;BME280_pressure;Samples;Min_cycle;Max_cycle;Signal;HPM_P1;HPM_P2
2023/05/18 00:00:13;;;;;;;8.38;3.38;;;;;;;5.56;89.96;102779.84;4977646;28;20483;-87
2023/05/18 00:02:40;;;;;;;11.65;3.80;;;;;;;5.72;89.82;102809.59;4977535;28;20073;-86
2023/05/18 00:05:07;;;;;;;9.65;3.40;;;;;;;5.48;90.62;102779.09;4977452;28;20410;-87
2023/05/18 00:07:32;;;;;;;10.55;3.90;;;;;;;5.63;90.55;102804.56;4977394;28;20035;-86
2023/05/18 00:09:58;;;;;;;7.97;3.42;;;;;;;5.51;91.21;102804.69;4959503;28;20039;-86
2023/05/18 00:12:24;;;;;;;10.27;3.58;;;;;;;5.54;91.44;102808.94;4977475;28;20074;-86
2023/05/18 00:14:49;;;;;;;9.35;3.90;;;;;;;5.48;91.94;102803.00;4977474;28;20019;-85
2023/05/18 00:17:14;;;;;;;7.97;3.70;;;;;;;5.44;91.65;102803.91;4977283;28;20109;-85
2023/05/18 00:19:40;;;;;;;11.70;4.35;;;;;;;5.32;92.22;102798.91;4977281;28;20022;-84
2023/05/18 00:22:06;;;;;;;9.73;4.00;;;;;;;5.16;92.11;102777.69;4977350;28;20054;-85
2023/05/18 00:24:32;;;;;;;9.38;3.63;;;;;;;5.19;92.62;102782.78;4977557;28;20022;-85
2023/05/18 00:26:57;;;;;;;7.18;3.38;;;;;;;5.28;92.82;102809.19;4978859;28;20137;-85
2023/05/18 00:29:22;;;;;;;10.15;3.50;;;;;;;5.17;92.16;102791.34;4977690;28;20439;-81
2023/05/18 00:31:48;;;;;;;8.88;3.70;;;;;;;5.21;92.14;102798.16;4977000;28;20089;-79
2023/05/18 00:34:14;;;;;;;11.27;3.80;;;;;;;5.14;93.21;102799.06;4977059;28;20078;-78
2023/05/18 00:36:40;;;;;;;9.10;3.83;;;;;;;4.96;93.45;102773.63;4976873;28;20518;-79
2023/05/18 00:39:08;;;;;;;10.85;4.00;;;;;;;5.04;93.16;102795.75;4976532;28;20054;-77
2023/05/18 00:41:33;;;;;;;8.90;3.60;;;;;;;5.13;93.61;102817.88;4959393;28;20506;-79
2023/05/18 00:43:59;;;;;;;12.60;3.83;;;;;;;5.10;93.47;102808.47;4976800;28;20034;-77
2023/05/18 00:46:26;;;;;;;8.80;3.70;;;;;;;4.89;93.55;102783.91;4977274;28;20119;-81
2023/05/18 00:48:53;;;;;;;9.52;3.95;;;;;;;5.05;94.25;102811.94;4976805;28;20023;-79
2023/05/18 00:51:22;;;;;;;11.35;4.30;;;;;;;5.01;94.39;102815.38;4976771;28;20134;-78
2023/05/18 00:53:48;;;;;;;10.32;4.05;;;;;;;4.92;94.91;102807.75;4976686;28;20034;-82
2023/05/18 00:56:14;;;;;;;7.57;4.32;;;;;;;4.68;95.38;102768.72;4976570;28;20065;-77
2023/05/18 00:58:40;;;;;;;7.78;3.70;;;;;;;4.93;95.17;102815.47;4959242;28;20074;-79
2023/05/18 01:01:08;;;;;;;10.65;3.90;;;;;;;4.77;95.68;102801.06;4976605;28;20046;-76
2023/05/18 01:03:33;;;;;;;11.30;4.00;;;;;;;4.78;95.74;102798.50;4976206;28;20026;-80
2023/05/18 01:05:59;;;;;;;10.70;4.13;;;;;;;4.71;96.27;102807.06;4974995;28;20041;-77
2023/05/18 01:08:26;;;;;;;10.07;4.68;;;;;;;4.75;96.60;102820.72;4976639;28;20081;-82
2023/05/18 01:10:59;;;;;;;11.32;4.20;;;;;;;4.68;96.69;102811.38;4976643;28;20069;-80
2023/05/18 01:13:39;;;;;;;10.05;4.07;;;;;;;4.44;96.55;102768.88;4976300;28;20034;-77
2023/05/18 01:16:09;;;;;;;10.20;3.80;;;;;;;4.70;97.10;102819.88;4976359;28;20027;-80
2023/05/18 01:18:49;;;;;;;9.45;4.45;;;;;;;4.34;96.90;102762.97;4976064;28;20031;-76
2023/05/18 01:21:48;;;;;;;9.30;4.20;;;;;;;4.60;97.62;102813.97;4975998;28;20034;-77
2023/05/18 01:24:24;;;;;;;7.80;4.10;;;;;;;4.60;97.36;102819.94;4976213;28;20383;-79
2023/05/18 01:26:56;;;;;;;8.32;3.95;;;;;;;4.52;97.37;102826.81;4976088;28;20034;-77
2023/05/18 01:29:23;;;;;;;11.82;4.10;;;;;;;4.30;98.50;102786.84;4976137;28;20037;-79
2023/05/18 01:31:49;;;;;;;13.57;4.22;;;;;;;4.46;97.87;102826.84;4976007;28;20023;-77
2023/05/18 01:34:14;;;;;;;10.90;3.97;;;;;;;4.41;98.42;102818.34;4975577;28;20026;-78
2023/05/18 01:36:40;;;;;;;10.63;4.40;;;;;;;4.41;98.79;102812.38;4975856;28;20147;-80
2023/05/18 01:39:06;;;;;;;9.95;4.15;;;;;;;4.47;98.38;102823.44;4975703;28;20046;-77
2023/05/18 01:41:35;;;;;;;9.35;4.25;;;;;;;4.24;98.77;102792.03;4975779;28;20062;-78
2023/05/18 01:44:01;;;;;;;12.32;4.70;;;;;;;4.45;98.54;102820.03;4975827;28;20075;-80
2023/05/18 01:46:49;;;;;;;12.95;4.65;;;;;;;4.46;98.71;102828.56;4975822;28;20058;-77
2023/05/18 01:49:33;;;;;;;13.00;4.03;;;;;;;4.46;98.71;102834.53;4975394;28;20030;-76
2023/05/18 01:52:05;;;;;;;9.90;4.03;;;;;;;4.44;98.58;102820.91;4975490;28;20481;-79
2023/05/18 01:54:31;;;;;;;8.52;3.90;;;;;;;4.33;98.94;102812.44;4957776;28;20041;-81
2023/05/18 01:56:57;;;;;;;10.25;4.35;;;;;;;4.37;98.80;102813.25;4975574;28;20501;-76
2023/05/18 01:59:23;;;;;;;11.52;4.47;;;;;;;4.38;99.29;102808.13;4975503;28;20022;-80
2023/05/18 02:01:49;;;;;;;11.90;4.43;;;;;;;4.25;99.01;102792.00;4975543;28;20019;-76
2023/05/18 02:04:15;;;;;;;8.50;4.60;;;;;;;4.42;99.25;102817.47;4975219;28;20038;-78
2023/05/18 02:06:40;;;;;;;8.27;4.68;;;;;;;4.43;99.41;102826.03;4975177;28;20085;-77
2023/05/18 02:09:05;;;;;;;8.77;4.25;;;;;;;4.27;99.27;102792.00;4975576;28;20026;-79
2023/05/18 02:11:31;;;;;;;12.18;4.47;;;;;;;4.43;98.93;102823.47;4975269;28;20046;-83
2023/05/18 02:13:56;;;;;;;9.93;4.40;;;;;;;4.43;99.53;102818.34;4975225;28;20438;-79
2023/05/18 02:16:21;;;;;;;7.38;4.43;;;;;;;4.43;98.61;102813.25;4959808;28;20118;-80
2023/05/18 02:18:47;;;;;;;8.48;4.15;;;;;;;4.31;99.12;102798.78;4955415;29;20039;-76
2023/05/18 02:21:12;;;;;;;14.55;5.05;;;;;;;4.43;99.03;102818.34;4955834;29;20043;-78
2023/05/18 02:23:40;;;;;;;11.50;5.07;;;;;;;4.44;98.82;102812.38;4955574;29;20031;-77
2023/05/18 02:26:06;;;;;;;9.85;5.03;;;;;;;4.42;99.09;102811.50;4955611;29;20027;-82
2023/05/18 02:28:31;;;;;;;11.40;4.75;;;;;;;4.32;99.14;102790.25;4955703;29;20023;-85
2023/05/18 02:31:10;;;;;;;12.40;4.93;;;;;;;4.36;99.39;102797.06;4955287;29;20479;-80
2023/05/18 02:33:39;;;;;;;12.43;5.10;;;;;;;4.30;99.62;102786.84;4955448;29;20494;-88
2023/05/18 02:36:09;;;;;;;9.95;4.80;;;;;;;4.41;99.39;102808.09;4955544;29;20027;-88
2023/05/18 02:38:42;;;;;;;15.20;4.72;;;;;;;4.42;98.96;102806.41;4955425;29;20031;-87
2023/05/18 02:41:10;;;;;;;12.15;5.47;;;;;;;4.40;99.26;102800.44;4955413;29;20070;-88
2023/05/18 02:43:36;;;;;;;10.00;4.82;;;;;;;4.39;99.11;102801.31;4955072;29;20032;-88
2023/05/18 02:46:02;;;;;;;12.90;5.30;;;;;;;4.21;98.96;102777.53;4955338;29;20085;-87
2023/05/18 02:48:28;;;;;;;11.43;5.18;;;;;;;4.36;99.58;102799.63;4955313;29;20097;-86
2023/05/18 02:50:53;;;;;;;10.95;5.00;;;;;;;4.36;99.62;102796.22;4955495;29;20106;-88
2023/05/18 02:53:20;;;;;;;10.38;4.90;;;;;;;4.30;99.71;102792.81;4937911;29;20407;-83
2023/05/18 02:55:46;;;;;;;10.65;4.43;;;;;;;3.99;99.28;102740.16;4955173;29;20038;-87
2023/05/18 02:58:15;;;;;;;11.90;5.07;;;;;;;4.17;99.55;102782.69;4954982;29;20019;-85
2023/05/18 03:00:40;;;;;;;10.98;4.25;;;;;;;4.04;100.00;102764.00;4955122;29;20036;-88
2023/05/18 03:03:09;;;;;;;11.23;4.97;;;;;;;4.26;100.00;102801.38;4955099;29;20034;-86
2023/05/18 03:05:35;;;;;;;9.30;5.05;;;;;;;4.23;100.00;102805.66;4954895;29;20027;-87
2023/05/18 03:08:01;;;;;;;11.48;4.95;;;;;;;4.19;99.99;102797.16;4955013;29;20078;-78
2023/05/18 03:10:26;;;;;;;10.15;5.00;;;;;;;4.19;100.00;102803.97;4955084;29;20055;-87
2023/05/18 03:12:51;;;;;;;13.40;5.47;;;;;;;4.18;100.00;102802.28;4954880;29;20038;-87
2023/05/18 03:15:17;;;;;;;10.20;4.68;;;;;;;4.06;100.00;102794.66;4954744;29;20031;-85
2023/05/18 03:17:42;;;;;;;11.80;5.47;;;;;;;4.12;100.00;102803.13;4954897;29;20035;-85
2023/05/18 03:20:14;;;;;;;9.93;4.60;;;;;;;4.01;100.00;102795.50;4954538;29;20027;-76
2023/05/18 03:22:39;;;;;;;;;;;;;;;4.12;99.60;102812.50;4955205;29;20055;-85
2023/05/18 03:25:05;;;;;;;11.27;5.18;;;;;;;3.73;100.00;102748.75;4954948;29;19953;-84
2023/05/18 03:27:30;;;;;;;10.68;5.28;;;;;;;3.78;100.00;102759.00;4954551;29;20035;-83
2023/05/18 03:29:56;;;;;;;11.20;5.80;;;;;;;3.96;100.00;102793.84;4954007;29;20035;-87
2023/05/18 03:32:23;;;;;;;10.13;4.65;;;;;;;3.99;100.00;102807.47;4954823;29;20469;-87
2023/05/18 03:34:49;;;;;;;10.23;5.22;;;;;;;3.92;100.00;102815.16;4959456;28;20030;-86
2023/05/18 03:37:15;;;;;;;11.98;5.25;;;;;;;3.59;100.00;102747.97;4974131;28;20037;-77
2023/05/18 03:39:41;;;;;;;11.10;4.95;;;;;;;3.84;100.00;102799.00;4975003;28;20046;-76
2023/05/18 03:42:06;;;;;;;9.63;4.90;;;;;;;3.88;100.00;102805.81;4975306;28;20110;-76
2023/05/18 03:44:31;;;;;;;11.85;5.10;;;;;;;3.90;100.00;102806.66;4973748;28;20109;-75
2023/05/18 03:46:57;;;;;;;11.73;5.38;;;;;;;3.92;100.00;102798.09;4974177;28;20035;-75
2023/05/18 03:49:22;;;;;;;11.93;5.97;;;;;;;3.78;100.00;102789.66;4973878;28;20026;-78
2023/05/18 03:51:47;;;;;;;11.38;5.32;;;;;;;3.92;100.00;102812.59;4973694;28;20034;-76
2023/05/18 03:54:13;;;;;;;15.57;5.90;;;;;;;3.93;100.00;102810.06;4973681;28;20082;-77
2023/05/18 03:56:38;;;;;;;12.05;5.35;;;;;;;3.96;100.00;102797.25;4973753;28;20041;-77
2023/05/18 03:59:03;;;;;;;9.13;5.20;;;;;;;3.91;100.00;102808.34;4973774;28;20114;-79
2023/05/18 04:01:32;;;;;;;9.88;5.22;;;;;;;3.77;100.00;102776.88;4973708;28;20478;-76
2023/05/18 04:03:58;;;;;;;12.35;5.15;;;;;;;3.88;100.00;102790.47;4973644;28;20675;-77
2023/05/18 04:06:25;;;;;;;14.20;6.07;;;;;;;3.97;100.00;102800.66;4973854;28;20133;-77
2023/05/18 04:08:51;;;;;;;13.00;6.15;;;;;;;4.10;100.00;102820.19;4973487;28;20092;-75
2023/05/18 04:11:16;;;;;;;12.43;6.50;;;;;;;4.19;100.00;102820.16;4973656;28;20030;-76
2023/05/18 04:13:42;;;;;;;11.70;5.88;;;;;;;3.81;100.00;102753.00;4973607;28;20109;-77
2023/05/18 04:16:11;;;;;;;12.82;5.43;;;;;;;4.27;100.00;102815.88;4973518;28;20065;-77
2023/05/18 04:18:37;;;;;;;11.95;5.78;;;;;;;4.33;100.00;102825.22;4973786;28;20027;-77
2023/05/18 04:21:02;;;;;;;12.90;5.30;;;;;;;4.26;100.00;102803.94;4973434;28;20467;-87
2023/05/18 04:23:27;;;;;;;10.85;5.45;;;;;;;4.43;100.00;102821.75;4973556;28;20498;-88
2023/05/18 04:25:53;;;;;;;13.10;6.30;;;;;;;4.52;100.00;102828.50;4973386;28;20174;-85
2023/05/18 04:28:18;;;;;;;12.90;6.07;;;;;;;4.63;99.94;102820.78;4973501;28;20027;-87
2023/05/18 04:30:44;;;;;;;13.38;5.88;;;;;;;4.72;99.90;102818.16;4973285;28;20027;-85
2023/05/18 04:33:11;;;;;;;11.88;5.80;;;;;;;4.78;99.64;102829.19;4973417;28;20037;-87
2023/05/18 04:35:37;;;;;;;11.90;5.80;;;;;;;4.88;98.35;102833.41;4973172;28;20097;-88
2023/05/18 04:38:02;;;;;;;13.70;6.07;;;;;;;4.92;97.82;102828.25;4956206;28;20023;-87
2023/05/18 04:40:27;;;;;;;10.50;5.13;;;;;;;5.05;97.25;102837.56;4974710;28;20043;-85
2023/05/18 04:42:53;;;;;;;12.20;6.00;;;;;;;5.13;96.67;102831.50;4977201;28;20023;-80
2023/05/18 04:45:19;;;;;;;13.05;6.22;;;;;;;5.18;96.19;102834.03;4976703;28;20117;-82
2023/05/18 04:47:46;;;;;;;15.65;6.20;;;;;;;5.13;96.34;102817.88;4976634;28;20038;-79
2023/05/18 04:50:15;;;;;;;12.20;6.35;;;;;;;5.30;96.47;102838.19;4959168;28;20474;-81
2023/05/18 04:52:47;;;;;;;11.43;6.10;;;;;;;5.29;95.59;102831.38;4976790;28;20050;-77
2023/05/18 04:55:18;;;;;;;12.25;6.22;;;;;;;5.45;94.96;102849.16;4976774;28;20043;-77
2023/05/18 04:57:44;;;;;;;;;;;;;;;5.56;95.04;102848.19;4977008;28;20030;-78
2023/05/18 05:00:11;;;;;;;12.48;5.97;;;;;;;5.62;94.10;102846.44;4976476;28;20020;-82
2023/05/18 05:02:37;;;;;;;13.93;5.65;;;;;;;5.74;94.26;102851.44;4976919;28;20085;-79
2023/05/18 05:05:03;;;;;;;14.05;5.78;;;;;;;5.95;92.91;102842.69;4976247;28;20051;-81
2023/05/18 05:07:28;;;;;;;11.07;5.47;;;;;;;6.28;91.03;102849.13;4976595;28;20438;-81
2023/05/18 05:09:54;;;;;;;10.57;5.65;;;;;;;6.53;90.00;102852.22;4976453;28;20035;-82
2023/05/18 05:12:19;;;;;;;9.85;4.97;;;;;;;6.79;89.14;102843.31;4976344;28;20035;-80
2023/05/18 05:14:44;;;;;;;10.43;5.30;;;;;;;7.31;86.67;102838.19;4976524;28;20466;-77
2023/05/18 05:17:11;;;;;;;12.68;5.50;;;;;;;7.84;83.72;102844.06;4976187;28;20035;-78
2023/05/18 05:19:36;;;;;;;9.93;5.07;;;;;;;8.04;82.34;102838.50;4975861;28;20031;-78
2023/05/18 05:22:02;;;;;;;11.15;4.80;;;;;;;8.65;79.15;102844.09;4976267;28;20081;-75
2023/05/18 05:24:27;;;;;;;10.95;4.60;;;;;;;8.97;76.69;102828.75;4976208;28;20034;-79
2023/05/18 05:26:52;;;;;;;11.90;4.65;;;;;;;9.18;74.42;102848.84;4958710;28;20085;-78
2023/05/18 05:29:18;;;;;;;11.75;4.47;;;;;;;9.08;74.33;102844.81;4976174;28;20085;-83
2023/05/18 05:31:44;;;;;;;14.43;4.68;;;;;;;8.66;74.79;102836.38;4957767;28;20130;-84
2023/05/18 05:34:10;;;;;;;10.48;5.10;;;;;;;8.27;75.47;102795.16;4976015;28;20067;-87
2023/05/18 05:36:36;;;;;;;15.30;5.38;;;;;;;8.45;75.93;102857.41;4957678;28;20399;-88
2023/05/18 05:39:01;;;;;;;12.55;4.57;;;;;;;8.32;76.49;102842.22;4975715;28;20026;-84
2023/05/18 05:41:27;;;;;;;11.00;4.30;;;;;;;8.27;76.29;102832.91;4958216;28;20533;-84
2023/05/18 05:43:52;;;;;;;9.52;4.63;;;;;;;8.17;75.81;102819.38;4958075;28;20049;-82
2023/05/18 05:46:17;;;;;;;9.95;5.00;;;;;;;8.33;75.58;102849.06;4957672;28;20121;-86
2023/05/18 05:48:43;;;;;;;10.85;4.57;;;;;;;8.35;76.20;102841.31;4975635;28;20023;-87
2023/05/18 05:51:08;;;;;;;8.68;4.80;;;;;;;8.45;75.07;102844.53;4975472;28;20042;-89
2023/05/18 05:53:33;;;;;;;13.20;4.68;;;;;;;8.90;75.83;102855.56;4975089;28;20056;-79
2023/05/18 05:55:59;;;;;;;7.78;3.90;;;;;;;9.94;70.88;102856.31;4957740;28;20058;-76
2023/05/18 05:58:24;;;;;;;11.30;4.25;;;;;;;11.41;66.58;102846.63;4975498;28;20023;-76
2023/05/18 06:00:49;;;;;;;9.65;4.57;;;;;;;12.25;61.82;102847.03;4952924;28;20103;-77
2023/05/18 06:03:15;;;;;;;9.52;4.18;;;;;;;12.87;59.26;102848.91;4935695;29;20118;-76
2023/05/18 06:05:40;;;;;;;9.38;3.88;;;;;;;13.40;56.72;102830.31;4936862;29;20039;-75
2023/05/18 06:08:05;;;;;;;7.40;3.65;;;;;;;13.99;54.32;102818.19;4918974;29;20507;-74
2023/05/18 06:10:31;;;;;;;10.60;4.78;;;;;;;14.54;54.00;102850.28;4936773;29;20042;-77
2023/05/18 06:12:57;;;;;;;7.68;3.63;;;;;;;15.30;51.21;102847.44;4919803;29;20036;-79
2023/05/18 06:15:22;;;;;;;8.32;3.75;;;;;;;15.31;49.52;102847.34;4936461;29;20035;-76
2023/05/18 06:17:48;;;;;;;13.70;4.53;;;;;;;15.99;48.63;102847.31;4919363;29;20114;-74
2023/05/18 06:20:13;;;;;;;12.38;4.18;;;;;;;16.74;47.48;102843.22;4936268;29;20114;-79
2023/05/18 06:22:39;;;;;;;7.95;3.38;;;;;;;17.19;45.89;102827.47;4919368;29;20030;-77
2023/05/18 06:25:04;;;;;;;9.13;3.47;;;;;;;17.27;44.72;102850.53;4936607;29;20031;-80
2023/05/18 06:27:30;;;;;;;9.13;3.47;;;;;;;16.81;44.22;102821.03;4936493;29;20024;-77
2023/05/18 06:29:56;;;;;;;7.75;3.88;;;;;;;16.62;45.22;102847.31;4936295;29;20027;-80
2023/05/18 06:32:21;;;;;;;8.23;3.63;;;;;;;16.39;45.02;102848.59;4936147;29;20031;-78
2023/05/18 06:34:49;;;;;;;10.50;4.35;;;;;;;15.85;45.34;102840.25;4936149;29;20028;-88
2023/05/18 06:37:14;;;;;;;9.75;4.43;;;;;;;15.35;46.84;102855.88;4936571;29;20063;-87
2023/05/18 06:39:40;;;;;;;11.85;3.90;;;;;;;15.28;47.87;102854.50;4936092;29;20082;-88
2023/05/18 06:42:05;;;;;;;8.40;3.85;;;;;;;15.30;48.52;102840.47;4937375;29;20111;-85
2023/05/18 06:44:34;;;;;;;9.77;3.95;;;;;;;14.76;48.24;102823.25;4919189;29;20043;-86
2023/05/18 06:47:00;;;;;;;12.48;4.28;;;;;;;15.04;47.74;102851.34;4936341;29;20063;-90
2023/05/18 06:49:25;;;;;;;10.52;3.95;;;;;;;16.17;46.86;102854.16;4936038;29;20438;-81
2023/05/18 06:51:51;;;;;;;10.55;4.30;;;;;;;16.78;43.70;102852.53;4936131;29;20103;-74
2023/05/18 06:54:16;;;;;;;6.90;3.42;;;;;;;17.20;42.92;102839.59;4935961;29;20032;-81
2023/05/18 06:56:42;;;;;;;13.07;3.83;;;;;;;17.70;42.71;102856.69;4935711;29;20032;-83
2023/05/18 06:59:07;;;;;;;10.73;3.90;;;;;;;18.12;41.68;102854.94;4935853;29;20028;-81
2023/05/18 07:01:32;;;;;;;12.80;3.67;;;;;;;18.46;39.41;102821.41;4936044;29;20030;-86
2023/05/18 07:03:58;;;;;;;11.25;3.72;;;;;;;18.53;39.80;102864.56;4935935;29;20479;-84
2023/05/18 07:06:23;;;;;;;12.30;3.90;;;;;;;17.96;38.41;102843.75;4935629;29;20031;-83
2023/05/18 07:08:49;;;;;;;11.98;3.83;;;;;;;17.46;40.59;102842.44;4935950;29;20059;-88
2023/05/18 07:11:14;;;;;;;10.18;3.90;;;;;;;17.56;40.84;102859.25;4936058;29;20099;-86
2023/05/18 07:13:41;;;;;;;11.73;4.07;;;;;;;17.99;39.73;102869.69;4935977;29;20059;-87
2023/05/18 07:16:06;;;;;;;10.07;3.80;;;;;;;17.03;40.07;102730.13;4935859;29;20035;-86
2023/05/18 07:18:32;;;;;;;11.93;3.90;;;;;;;17.95;39.54;102852.53;4934302;29;20038;-82
2023/05/18 07:20:58;;;;;;;10.75;4.05;;;;;;;18.83;39.55;102838.19;4935705;29;20028;-82
2023/05/18 07:23:23;;;;;;;12.82;4.30;;;;;;;19.69;37.14;102833.25;4935261;29;20046;-87
2023/05/18 07:25:49;;;;;;;10.70;4.20;;;;;;;20.07;35.05;102869.06;4936714;29;20391;-92
2023/05/18 07:28:14;;;;;;;9.65;3.40;;;;;;;19.18;36.79;102862.88;4936073;29;20106;-88
2023/05/18 07:30:39;;;;;;;8.73;3.80;;;;;;;18.06;40.47;102871.00;4935691;29;20027;-89
2023/05/18 07:33:05;;;;;;;13.38;4.28;;;;;;;17.05;41.29;102848.34;4935412;29;20028;-87
2023/05/18 07:35:31;;;;;;;11.35;4.28;;;;;;;16.25;42.29;102883.25;4935297;29;20464;-91
2023/05/18 07:37:56;;;;;;;10.27;4.07;;;;;;;15.27;44.39;102858.00;4935116;29;20034;-85
2023/05/18 07:40:22;;;;;;;9.85;4.05;;;;;;;14.70;45.62;102883.38;4935125;29;20087;-88
2023/05/18 07:42:47;;;;;;;8.90;3.85;;;;;;;14.45;48.75;102879.28;4935360;29;20040;-91
2023/05/18 07:45:12;;;;;;;10.90;4.53;;;;;;;14.32;49.34;102881.59;4935479;29;20107;-89
2023/05/18 07:47:38;;;;;;;9.55;4.13;;;;;;;13.85;49.17;102885.47;4935396;29;20560;-78
2023/05/18 07:50:04;;;;;;;11.13;4.80;;;;;;;13.54;51.27;102885.97;4935507;29;20036;-85
2023/05/18 07:52:29;;;;;;;13.45;4.45;;;;;;;13.41;50.85;102901.22;4940289;28;20027;-89
2023/05/18 07:54:56;;;;;;;11.82;4.65;;;;;;;13.12;53.28;102892.84;4973733;28;20591;-88
2023/05/18 07:57:21;;;;;;;10.73;4.60;;;;;;;12.88;52.36;102891.22;4973811;28;20486;-77
2023/05/18 07:59:46;;;;;;;11.68;4.40;;;;;;;12.89;53.04;102888.59;4956499;28;20126;-77
2023/05/18 08:02:12;;;;;;;12.57;4.60;;;;;;;12.66;53.91;102836.81;4954458;29;20034;-76
2023/05/18 08:04:37;;;;;;;10.88;4.03;;;;;;;13.06;53.59;102897.44;4954279;29;20107;-76
2023/05/18 08:07:03;;;;;;;10.30;4.70;;;;;;;12.80;52.97;102899.34;4953987;29;20031;-77
2023/05/18 08:09:29;;;;;;;11.63;4.68;;;;;;;12.89;53.77;102904.16;4954458;29;20035;-77
2023/05/18 08:11:55;;;;;;;13.00;4.40;;;;;;;13.08;53.27;102900.84;4954441;29;20082;-78
2023/05/18 08:14:20;;;;;;;12.20;4.70;;;;;;;12.92;52.98;102857.34;4954178;28;20039;-76
2023/05/18 08:16:46;;;;;;;10.32;4.55;;;;;;;12.93;51.97;102861.63;4957633;29;20015;-76
2023/05/18 08:19:11;;;;;;;8.50;4.35;;;;;;;12.78;53.02;102853.63;4940817;29;20090;-77
2023/05/18 08:21:40;;;;;;;11.52;4.50;;;;;;;13.09;54.89;102895.59;4957858;29;20054;-73
2023/05/18 08:24:06;;;;;;;12.63;4.78;;;;;;;13.23;56.34;102899.38;4957713;29;20090;-76
2023/05/18 08:26:31;;;;;;;10.38;4.43;;;;;;;13.31;53.20;102892.97;4956448;28;20062;-78
2023/05/18 08:28:57;;;;;;;13.90;4.00;;;;;;;13.45;52.53;102900.19;4958242;29;20076;-77
2023/05/18 08:31:22;;;;;;;10.07;4.15;;;;;;;13.18;50.51;102832.94;4957785;29;20034;-85
2023/05/18 08:33:48;;;;;;;15.15;4.82;;;;;;;13.56;50.80;102881.56;4957784;29;20028;-77
2023/05/18 08:36:14;;;;;;;11.80;4.55;;;;;;;13.75;50.91;102893.69;4957430;29;20118;-79
2023/05/18 08:38:39;;;;;;;10.68;4.03;;;;;;;13.83;53.33;102882.13;4957357;29;20106;-78
2023/05/18 08:41:21;;;;;;;11.68;4.40;;;;;;;13.84;53.25;102868.22;4959625;29;20047;-91
2023/05/18 08:43:53;;;;;;;12.02;4.82;;;;;;;13.46;52.11;102842.16;4961392;29;20118;-79
2023/05/18 08:46:21;;;;;;;10.85;4.05;;;;;;;13.57;51.42;102876.31;4959775;29;20035;-89
2023/05/18 08:48:58;;;;;;;10.65;3.90;;;;;;;13.30;51.42;102843.75;4958437;29;20027;-80
2023/05/18 08:51:27;;;;;;;9.40;3.97;;;;;;;13.70;54.05;102874.88;4957320;29;20399;-82
2023/05/18 08:53:53;;;;;;;10.48;4.10;;;;;;;13.74;52.52;102868.63;4940590;29;20034;-82
2023/05/18 08:56:21;;;;;;;8.35;4.00;;;;;;;13.84;51.43;102876.84;4957541;29;20031;-84
2023/05/18 08:58:50;;;;;;;10.30;4.45;;;;;;;13.76;49.96;102873.75;4957485;29;20058;-83
2023/05/18 09:01:16;;;;;;;11.70;4.40;;;;;;;13.59;50.42;102838.16;4957283;29;20051;-84
2023/05/18 09:03:43;;;;;;;8.07;4.28;;;;;;;13.95;49.30;102868.59;4957184;29;20035;-86
2023/05/18 09:06:09;;;;;;;13.02;4.05;;;;;;;14.07;49.87;102868.91;4957180;29;20031;-87
2023/05/18 09:08:35;;;;;;;10.30;4.20;;;;;;;14.03;49.73;102864.72;4958625;29;20070;-89
2023/05/18 09:11:01;;;;;;;12.68;4.60;;;;;;;13.65;50.13;102839.63;4959178;29;20380;-90
2023/05/18 09:13:27;;;;;;;9.30;3.88;;;;;;;14.15;53.27;102863.31;4957724;29;20031;-86
2023/05/18 09:15:53;;;;;;;13.98;4.28;;;;;;;14.02;49.44;102828.44;4923581;29;20040;-89
2023/05/18 09:18:18;;;;;;;12.52;3.40;;;;;;;13.99;47.48;102859.75;4955028;29;20111;-89
2023/05/18 09:20:44;;;;;;;9.52;3.60;;;;;;;14.01;48.11;102858.78;4956757;29;20031;-86
2023/05/18 09:23:10;;;;;;;11.55;3.50;;;;;;;14.11;48.96;102834.97;4956760;29;20031;-87
2023/05/18 09:25:43;;;;;;;11.05;3.97;;;;;;;14.53;49.84;102843.38;4956934;29;20024;-91
2023/05/18 09:28:09;;;;;;;9.10;3.17;;;;;;;14.73;47.58;102857.19;4955417;28;20042;-85
2023/05/18 09:30:42;;;;;;;11.75;3.33;;;;;;;14.62;45.01;102861.16;4939613;29;20035;-87
2023/05/18 09:33:17;;;;;;;9.88;3.67;;;;;;;14.59;46.90;102831.88;4956478;29;20032;-88
2023/05/18 09:35:46;;;;;;;9.57;3.65;;;;;;;14.45;47.79;102813.47;4956796;29;20357;-87
2023/05/18 09:38:16;;;;;;;10.95;4.40;;;;;;;14.45;46.10;102855.06;4956486;29;20027;-89
2023/05/18 09:40:45;;;;;;;9.35;3.38;;;;;;;14.39;48.65;102840.56;4956069;29;20075;-86
2023/05/18 09:43:10;;;;;;;12.05;4.35;;;;;;;14.49;46.80;102836.66;4938789;29;20039;-88
2023/05/18 09:45:41;;;;;;;10.00;3.58;;;;;;;14.35;45.93;102782.72;4956254;29;20387;-83
2023/05/18 09:48:06;;;;;;;11.43;3.85;;;;;;;14.98;46.05;102846.44;4956334;29;20027;-88
2023/05/18 09:50:32;;;;;;;9.93;4.00;;;;;;;14.84;45.32;102841.91;4956424;29;20034;-85
2023/05/18 09:52:59;;;;;;;12.23;4.50;;;;;;;14.41;45.33;102830.09;4956240;29;20031;-89
2023/05/18 09:55:24;;;;;;;10.93;4.43;;;;;;;14.20;46.40;102830.19;4956117;29;20064;-83
2023/05/18 09:57:50;;;;;;;10.80;4.20;;;;;;;14.50;47.60;102843.53;4956131;29;20057;-86
2023/05/18 10:00:18;;;;;;;9.60;4.07;;;;;;;14.57;47.10;102842.34;4955973;29;20030;-87
2023/05/18 10:02:47;;;;;;;10.82;4.35;;;;;;;14.23;49.13;102792.81;4955941;29;20023;-89
2023/05/18 10:05:21;;;;;;;10.10;4.15;;;;;;;14.49;47.99;102848.81;4955944;29;20034;-87
2023/05/18 10:07:47;;;;;;;8.85;3.60;;;;;;;14.35;45.99;102837.28;4938548;29;20043;-89
2023/05/18 10:10:16;;;;;;;12.88;4.22;;;;;;;14.44;46.04;102837.75;4955839;29;20028;-87
2023/05/18 10:12:42;;;;;;;11.18;4.55;;;;;;;14.38;45.77;102791.28;4955942;29;20054;-89
2023/05/18 10:15:09;;;;;;;11.00;4.18;;;;;;;14.62;46.67;102769.31;4955663;29;20027;-89
2023/05/18 10:17:37;;;;;;;11.13;4.32;;;;;;;15.11;47.35;102827.53;4955866;29;20108;-88
2023/05/18 10:20:07;;;;;;;11.30;4.53;;;;;;;15.29;47.15;102822.34;4955883;29;20475;-80
2023/05/18 10:22:34;;;;;;;12.30;4.53;;;;;;;15.38;46.85;102822.69;4955840;29;20027;-87
2023/05/18 10:25:03;;;;;;;9.70;4.22;;;;;;;15.10;43.38;102822.41;4936990;29;20015;-84
2023/05/18 10:27:31;;;;;;;10.60;4.85;;;;;;;14.83;45.41;102796.84;4955368;29;20024;-86
2023/05/18 10:29:57;;;;;;;12.27;5.03;;;;;;;14.91;46.07;102815.53;4955403;29;20102;-89
2023/05/18 10:32:24;;;;;;;13.05;4.60;;;;;;;14.76;46.18;102782.50;4955538;29;20054;-87
2023/05/18 10:34:55;;;;;;;12.77;5.63;;;;;;;15.01;45.46;102818.50;4954328;29;20037;-82
2023/05/18 10:37:29;;;;;;;11.93;4.82;;;;;;;14.74;46.87;102791.25;4937640;29;20491;-78
2023/05/18 10:39:55;;;;;;;11.40;5.05;;;;;;;14.36;45.84;102757.56;4954961;29;20047;-80
2023/05/18 10:42:22;;;;;;;12.30;5.15;;;;;;;14.44;44.51;102807.41;4955063;29;20027;-76
2023/05/18 10:44:51;;;;;;;10.63;4.68;;;;;;;14.61;46.25;102810.06;4955116;29;20035;-76
2023/05/18 10:47:18;;;;;;;10.13;4.47;;;;;;;14.68;46.18;102814.97;4954987;29;20032;-78
2023/05/18 10:49:47;;;;;;;11.60;4.90;;;;;;;14.44;46.59;102809.16;4954902;29;20034;-77
2023/05/18 10:52:12;;;;;;;12.18;5.00;;;;;;;14.51;46.85;102808.81;4955027;29;20506;-77
2023/05/18 10:54:39;;;;;;;10.60;4.97;;;;;;;14.30;46.59;102815.03;4955287;29;20028;-77
2023/05/18 10:57:05;;;;;;;11.20;5.28;;;;;;;14.31;45.08;102814.09;4938092;29;20058;-88
2023/05/18 10:59:32;;;;;;;11.02;4.72;;;;;;;14.33;48.51;102781.91;4954929;29;20102;-86
2023/05/18 11:01:59;;;;;;;9.55;4.90;;;;;;;14.18;44.70;102785.25;4937927;28;20027;-82
2023/05/18 11:04:25;;;;;;;11.02;4.88;;;;;;;14.24;45.23;102792.75;4935657;29;20068;-82
2023/05/18 11:07:00;;;;;;;10.50;4.80;;;;;;;14.40;44.68;102800.66;4935819;29;20124;-90
2023/05/18 11:09:27;;;;;;;9.95;4.45;;;;;;;14.56;42.95;102812.06;4935431;29;20043;-81
2023/05/18 11:11:56;;;;;;;10.07;5.18;;;;;;;14.53;44.84;102788.78;4935728;29;20020;-83
2023/05/18 11:14:30;;;;;;;12.32;5.00;;;;;;;14.56;46.15;102773.06;4935778;29;20099;-81
2023/05/18 11:17:21;;;;;;;12.10;5.22;;;;;;;14.89;46.44;102793.97;4935735;29;20034;-82
2023/05/18 11:23:00;;;;;;;10.90;4.40;;;;;;;14.96;47.19;102794.50;4935495;29;20369;-80
2023/05/18 11:25:26;;;;;;;11.77;4.78;;;;;;;14.92;46.36;102790.34;4935379;29;20038;-78